createdAt,value
2018-07-02T00:00:38.713Z,42.90
2018-07-02T00:03:08.220Z,43.37
2018-07-02T00:05:48.774Z,42.96
2018-07-02T00:08:18.484Z,42.90
2018-07-02T00:10:48.292Z,43.88
2018-07-02T00:13:18.013Z,44.59
2018-07-02T00:15:47.505Z,44.62
2018-07-02T00:18:17.137Z,45.00
2018-07-02T00:20:46.778Z,45.12
2018-07-02T00:23:16.110Z,45.63
2018-07-02T00:25:45.903Z,45.89
2018-07-02T00:28:15.543Z,45.33
2018-07-02T00:30:44.902Z,46.01
2018-07-02T00:33:14.620Z,45.51
2018-07-02T00:35:44.394Z,45.60
2018-07-02T00:38:13.832Z,45.75
2018-07-02T00:40:43.449Z,46.40
2018-07-02T00:43:13.152Z,46.06
2018-07-02T00:45:43.047Z,46.11
2018-07-02T00:48:12.831Z,46.10
2018-07-02T00:50:43.046Z,46.00
2018-07-02T00:53:13.033Z,45.85
2018-07-02T00:55:42.540Z,45.84
2018-07-02T00:58:12.685Z,45.76
2018-07-02T01:00:42.400Z,46.18
2018-07-02T01:03:12.080Z,45.74
2018-07-02T01:05:41.917Z,46.13
2018-07-02T01:08:11.531Z,45.90
2018-07-02T01:10:41.002Z,45.94
2018-07-02T01:13:11.152Z,45.75
2018-07-02T01:15:40.532Z,46.19
2018-07-02T01:18:09.856Z,46.23
2018-07-02T01:20:39.661Z,45.91
2018-07-02T01:23:09.175Z,46.52
2018-07-02T01:25:38.619Z,45.68
2018-07-02T01:28:08.710Z,46.18
2018-07-02T01:30:38.253Z,46.21
2018-07-02T01:33:07.720Z,46.24
2018-07-02T01:35:37.538Z,46.15
2018-07-02T01:38:07.118Z,47.12
2018-07-02T01:40:36.523Z,46.67
2018-07-02T01:43:06.653Z,46.93
2018-07-02T01:45:36.040Z,46.95
2018-07-02T01:48:05.713Z,46.61
2018-07-02T01:50:35.612Z,47.53
2018-07-02T01:53:04.976Z,47.16
2018-07-02T01:55:34.599Z,46.91
2018-07-02T01:58:04.672Z,47.50
2018-07-02T02:00:34.264Z,47.44
2018-07-02T02:03:03.965Z,47.46
2018-07-02T02:05:33.523Z,47.29
2018-07-02T02:08:03.229Z,47.54
2018-07-02T02:10:32.832Z,47.77
2018-07-02T02:13:06.271Z,47.43
2018-07-02T02:15:35.898Z,47.54
2018-07-02T02:18:05.576Z,47.91
2018-07-02T02:20:35.145Z,47.86
2018-07-02T02:23:04.938Z,47.94
2018-07-02T02:25:34.637Z,47.37
2018-07-02T02:28:04.075Z,47.48
2018-07-02T02:30:33.864Z,48.03
2018-07-02T02:33:03.261Z,48.34
2018-07-02T02:35:32.690Z,48.02
2018-07-02T02:38:02.782Z,47.85
2018-07-02T02:40:32.106Z,48.16
2018-07-02T02:43:01.592Z,48.12
2018-07-02T02:45:31.574Z,48.56
2018-07-02T02:48:01.083Z,48.66
2018-07-02T02:50:30.531Z,48.74
2018-07-02T02:53:00.615Z,48.93
2018-07-02T02:55:30.173Z,48.66
2018-07-02T02:57:59.534Z,48.49
2018-07-02T03:00:29.481Z,48.93
2018-07-02T03:02:58.946Z,48.35
2018-07-02T03:05:28.427Z,49.16
2018-07-02T03:07:58.246Z,48.89
2018-07-02T03:10:27.735Z,49.62
2018-07-02T03:12:57.089Z,49.73
2018-07-02T03:15:27.125Z,49.61
2018-07-02T03:17:56.724Z,49.43
2018-07-02T03:20:26.151Z,49.09
2018-07-02T03:22:55.888Z,48.79
2018-07-02T03:25:25.579Z,49.24
2018-07-02T03:27:55.212Z,48.55
2018-07-02T03:30:24.977Z,48.66
2018-07-02T03:32:55.036Z,49.18
2018-07-02T03:35:24.547Z,48.64
2018-07-02T03:37:54.179Z,49.28
2018-07-02T03:40:24.063Z,48.61
2018-07-02T03:42:53.692Z,48.70
2018-07-02T03:45:23.508Z,48.70
2018-07-02T03:47:53.408Z,49.13
2018-07-02T03:50:22.892Z,49.22
2018-07-02T03:52:52.423Z,49.31
2018-07-02T03:55:22.018Z,49.66
2018-07-02T03:57:51.434Z,49.99
2018-07-02T04:00:20.951Z,49.52
2018-07-02T04:02:50.645Z,49.50
2018-07-02T04:05:20.195Z,49.38
2018-07-02T04:07:49.900Z,49.86
2018-07-02T04:10:19.608Z,49.44
2018-07-02T04:12:49.102Z,49.60
2018-07-02T04:15:18.725Z,48.89
2018-07-02T04:17:48.631Z,49.17
2018-07-02T04:20:18.431Z,48.71
2018-07-02T04:22:48.189Z,48.51
2018-07-02T04:25:17.682Z,48.40
2018-07-02T04:27:47.550Z,48.55
2018-07-02T04:30:17.247Z,48.07
2018-07-02T04:32:46.652Z,48.64
2018-07-02T04:35:16.231Z,48.81
2018-07-02T04:37:45.851Z,49.24
2018-07-02T04:40:15.386Z,49.45
2018-07-02T04:42:44.914Z,48.95
2018-07-02T04:45:14.799Z,49.64
2018-07-02T04:47:44.474Z,49.59
2018-07-02T04:50:13.874Z,48.72
2018-07-02T04:52:43.864Z,49.06
2018-07-02T04:55:13.223Z,48.73
2018-07-02T04:57:42.759Z,48.91
2018-07-02T05:00:12.745Z,49.05
2018-07-02T05:02:42.111Z,49.26
2018-07-02T05:05:11.477Z,49.20
2018-07-02T05:07:41.545Z,49.07
2018-07-02T05:10:10.879Z,48.97
2018-07-02T05:12:40.495Z,48.68
2018-07-02T05:15:10.020Z,48.49
2018-07-02T05:17:39.535Z,48.44
2018-07-02T05:20:09.075Z,48.45
2018-07-02T05:22:38.667Z,47.75
2018-07-02T05:25:08.134Z,48.08
2018-07-02T05:27:37.876Z,47.64
2018-07-02T05:30:07.735Z,47.41
2018-07-02T05:32:37.061Z,46.72
2018-07-02T05:35:06.766Z,46.56
2018-07-02T05:37:36.256Z,46.05
2018-07-02T05:40:05.710Z,45.14
2018-07-02T05:42:35.503Z,44.39
2018-07-02T05:45:05.414Z,44.37
2018-07-02T05:47:35.137Z,44.31
2018-07-02T05:50:04.774Z,44.37
2018-07-02T05:52:34.354Z,43.55
2018-07-02T05:55:03.881Z,43.68
2018-07-02T05:57:33.371Z,43.55
2018-07-02T06:00:02.875Z,43.43
2018-07-02T06:02:32.105Z,42.21
2018-07-02T06:05:01.503Z,42.65
2018-07-02T06:07:30.943Z,42.92
2018-07-02T06:10:00.424Z,42.52
2018-07-02T06:12:30.171Z,42.40
2018-07-02T06:15:00.128Z,41.83
2018-07-02T06:17:29.715Z,41.68
2018-07-02T06:19:59.201Z,41.58
2018-07-02T06:22:28.846Z,41.12
2018-07-02T06:24:58.053Z,40.74
2018-07-02T06:27:27.189Z,41.07
2018-07-02T06:29:57.314Z,40.70
2018-07-02T06:32:29.005Z,40.62
2018-07-02T06:34:58.750Z,40.44
2018-07-02T06:37:28.089Z,40.50
2018-07-02T06:39:57.386Z,40.94
2018-07-02T06:42:27.126Z,41.03
2018-07-02T06:44:56.764Z,41.03
2018-07-02T06:47:26.221Z,41.06
2018-07-02T06:49:56.290Z,40.52
2018-07-02T06:52:26.077Z,40.71
2018-07-02T06:54:55.430Z,40.38
2018-07-02T06:57:24.996Z,40.26
2018-07-02T06:59:54.754Z,40.22
2018-07-02T07:02:25.734Z,39.93
2018-07-02T07:04:55.328Z,40.09
2018-07-02T07:07:24.894Z,40.26
2018-07-02T07:09:54.706Z,40.53
2018-07-02T07:12:24.495Z,39.36
2018-07-02T07:14:53.989Z,37.54
2018-07-02T07:17:23.746Z,36.29
2018-07-02T07:19:53.106Z,35.84
2018-07-02T07:22:22.509Z,35.80
2018-07-02T07:24:52.989Z,35.67
2018-07-02T07:27:22.361Z,35.47
2018-07-02T07:29:51.794Z,35.83
2018-07-02T07:32:21.589Z,35.59
2018-07-02T07:34:51.004Z,35.28
2018-07-02T07:37:20.485Z,33.46
2018-07-02T07:39:50.237Z,32.07
2018-07-02T07:42:19.600Z,30.90
2018-07-02T07:44:49.150Z,30.03
2018-07-02T07:47:18.931Z,29.82
2018-07-02T07:49:48.284Z,29.19
2018-07-02T07:52:17.689Z,29.03
2018-07-02T07:54:47.402Z,28.88
2018-07-02T07:57:16.812Z,27.55
2018-07-02T07:59:46.128Z,27.21
2018-07-02T08:02:16.154Z,27.63
2018-07-02T08:04:45.658Z,27.32
2018-07-02T08:07:15.462Z,28.02
2018-07-02T08:09:45.150Z,29.05
2018-07-02T08:12:14.873Z,28.86
2018-07-02T08:14:44.588Z,29.13
2018-07-02T08:17:14.393Z,29.51
2018-07-02T08:19:44.008Z,28.92
2018-07-02T08:22:13.672Z,26.97
2018-07-02T08:24:43.612Z,27.10
2018-07-02T08:27:13.522Z,26.31
2018-07-02T08:29:43.113Z,26.65
2018-07-02T08:32:12.770Z,27.67
2018-07-02T08:34:42.368Z,27.05
2018-07-02T08:37:12.062Z,27.18
2018-07-02T08:39:41.803Z,26.84
2018-07-02T08:42:11.875Z,26.14
2018-07-02T08:44:41.194Z,26.16
2018-07-02T08:47:10.591Z,25.55
2018-07-02T08:49:40.439Z,25.21
2018-07-02T08:52:09.778Z,24.88
2018-07-02T08:54:39.288Z,25.12
2018-07-02T08:57:09.149Z,25.45
2018-07-02T08:59:38.684Z,24.69
2018-07-02T09:02:08.631Z,24.89
2018-07-02T09:04:38.084Z,25.00
2018-07-02T09:07:07.364Z,24.69
2018-07-02T09:09:37.024Z,24.44
2018-07-02T09:12:06.687Z,24.62
2018-07-02T09:14:36.011Z,24.06
2018-07-02T09:17:05.656Z,23.94
2018-07-02T09:19:35.678Z,23.55
2018-07-02T09:24:33.615Z,23.02
2018-07-02T09:27:03.215Z,23.97
2018-07-02T09:29:32.632Z,23.35
2018-07-02T09:32:02.175Z,22.53
2018-07-02T09:34:31.632Z,23.71
2018-07-02T09:37:00.918Z,23.20
2018-07-02T09:39:30.596Z,23.66
2018-07-02T09:42:00.222Z,22.90
2018-07-02T09:44:29.844Z,22.87
2018-07-02T09:46:59.332Z,23.24
2018-07-02T09:49:28.972Z,23.22
2018-07-02T09:51:58.611Z,23.39
2018-07-02T09:54:28.063Z,23.35
2018-07-02T09:56:57.796Z,23.22
2018-07-02T09:59:27.567Z,22.86
2018-07-02T10:01:57.018Z,22.98
2018-07-02T10:04:26.652Z,22.51
2018-07-02T10:06:56.415Z,22.53
2018-07-02T10:09:25.806Z,22.74
2018-07-02T10:11:55.411Z,22.72
2018-07-02T10:14:25.049Z,22.92
2018-07-02T10:16:54.524Z,22.55
2018-07-02T10:19:24.476Z,22.45
2018-07-02T10:21:54.507Z,21.23
2018-07-02T10:24:24.290Z,20.58
2018-07-02T10:26:54.291Z,20.21
2018-07-02T10:29:23.668Z,19.11
2018-07-02T10:31:53.349Z,19.20
2018-07-02T10:34:22.914Z,19.36
2018-07-02T10:36:52.434Z,19.15
2018-07-02T10:39:22.187Z,18.97
2018-07-02T10:41:51.709Z,18.38
2018-07-02T10:44:21.014Z,18.43
2018-07-02T10:46:50.973Z,18.35
2018-07-02T10:49:20.717Z,18.10
2018-07-02T10:51:50.121Z,18.87
2018-07-02T10:54:19.770Z,19.03
2018-07-02T10:56:49.572Z,18.86
2018-07-02T10:59:18.796Z,19.41
2018-07-02T11:01:48.482Z,19.86
2018-07-02T11:04:17.985Z,20.05
2018-07-02T11:06:47.281Z,19.65
2018-07-02T11:09:16.882Z,19.89
2018-07-02T11:11:46.509Z,19.46
2018-07-02T11:14:15.897Z,20.19
2018-07-02T11:16:45.496Z,20.86
2018-07-02T11:19:15.092Z,21.23
2018-07-02T11:21:44.575Z,22.06
2018-07-02T11:24:14.178Z,22.27
2018-07-02T11:26:43.758Z,22.84
2018-07-02T11:29:13.107Z,22.79
2018-07-02T11:31:42.811Z,22.37
2018-07-02T11:34:12.635Z,22.96
2018-07-02T11:36:42.089Z,23.12
2018-07-02T11:39:12.321Z,23.39
2018-07-02T11:41:42.250Z,23.62
2018-07-02T11:44:11.598Z,23.77
2018-07-02T11:46:41.005Z,23.68
2018-07-02T11:49:11.170Z,23.47
2018-07-02T11:51:40.376Z,23.49
2018-07-02T11:54:09.799Z,23.62
2018-07-02T11:56:39.489Z,24.10
2018-07-02T11:59:08.903Z,24.32
2018-07-02T12:01:38.291Z,23.69
2018-07-02T12:04:08.396Z,23.71
2018-07-02T12:06:37.824Z,22.78
2018-07-02T12:09:10.011Z,23.07
2018-07-02T12:11:39.509Z,23.01
2018-07-02T12:14:08.897Z,22.78
2018-07-02T12:16:38.496Z,23.28
2018-07-02T12:21:42.655Z,22.69
2018-07-02T12:26:46.932Z,23.05
2018-07-02T12:29:16.499Z,23.33
2018-07-02T12:31:45.931Z,23.23
2018-07-02T12:34:15.544Z,21.63
2018-07-02T12:36:45.110Z,21.54
2018-07-02T12:39:15.085Z,21.45
2018-07-02T12:41:44.781Z,21.37
2018-07-02T12:44:14.962Z,21.66
2018-07-02T12:46:45.903Z,21.48
2018-07-02T12:49:15.648Z,22.50
2018-07-02T12:51:45.139Z,22.03
2018-07-02T12:54:14.966Z,21.88
2018-07-02T12:56:44.539Z,22.00
2018-07-02T12:59:13.929Z,22.51
2018-07-02T13:01:43.617Z,21.99
2018-07-02T13:04:13.286Z,21.84
2018-07-02T13:06:42.786Z,22.43
2018-07-02T13:09:13.476Z,21.92
2018-07-02T13:11:42.950Z,22.40
2018-07-02T13:14:12.854Z,24.98
2018-07-02T13:16:42.166Z,26.66
2018-07-02T13:19:11.867Z,27.83
2018-07-02T13:21:41.795Z,27.73
2018-07-02T13:24:11.273Z,29.08
2018-07-02T13:26:41.020Z,29.43
2018-07-02T13:29:11.277Z,29.62
2018-07-02T13:31:40.766Z,28.42
2018-07-02T13:34:10.348Z,28.17
2018-07-02T13:36:40.176Z,27.72
2018-07-02T13:39:10.258Z,28.78
2018-07-02T13:41:40.252Z,28.07
2018-07-02T13:44:09.845Z,27.98
2018-07-02T13:46:39.326Z,28.43
2018-07-02T13:49:09.023Z,28.32
2018-07-02T13:51:38.824Z,29.64
2018-07-02T13:54:08.353Z,29.70
2018-07-02T13:56:37.882Z,28.70
2018-07-02T13:59:07.615Z,29.16
2018-07-02T14:01:37.314Z,28.60
2018-07-02T14:04:07.321Z,29.20
2018-07-02T14:06:37.033Z,28.32
2018-07-02T14:09:09.715Z,28.66
2018-07-02T14:11:40.122Z,28.51
2018-07-02T14:14:09.905Z,28.54
2018-07-02T14:16:39.549Z,29.12
2018-07-02T14:19:09.249Z,29.38
2018-07-02T14:21:39.326Z,29.62
2018-07-02T14:24:09.320Z,30.20
2018-07-02T14:26:39.282Z,32.42
2018-07-02T14:29:08.727Z,32.05
2018-07-02T14:31:38.542Z,31.76
2018-07-02T14:34:08.536Z,32.34
2018-07-02T14:36:38.458Z,31.28
2018-07-02T14:39:13.202Z,31.58
2018-07-02T14:41:42.536Z,31.55
2018-07-02T14:44:11.876Z,31.25
2018-07-02T14:46:42.418Z,32.38
2018-07-02T14:49:12.031Z,32.73
2018-07-02T14:51:42.530Z,33.10
2018-07-02T14:54:12.795Z,33.30
2018-07-02T14:56:42.462Z,34.29
2018-07-02T14:59:12.257Z,34.19
2018-07-02T15:01:42.523Z,33.85
2018-07-02T15:04:12.259Z,33.63
2018-07-02T15:06:41.814Z,33.38
2018-07-02T15:09:13.279Z,33.21
2018-07-02T15:11:44.063Z,33.08
2018-07-02T15:14:14.337Z,32.89
2018-07-02T15:16:44.233Z,33.89
2018-07-02T15:19:13.881Z,33.91
2018-07-02T15:21:43.663Z,35.44
2018-07-02T15:24:13.894Z,34.75
2018-07-02T15:26:43.404Z,34.58
2018-07-02T15:29:13.653Z,34.19
2018-07-02T15:31:43.653Z,33.88
2018-07-02T15:34:13.749Z,33.61
2018-07-02T15:36:43.573Z,33.61
2018-07-02T15:39:13.377Z,34.01
2018-07-02T15:41:42.841Z,33.97
2018-07-02T15:44:12.854Z,34.42
2018-07-02T15:46:43.155Z,33.47
2018-07-02T15:49:12.855Z,33.65
2018-07-02T15:51:42.889Z,34.50
2018-07-02T15:54:13.392Z,34.28
2018-07-02T15:56:43.693Z,35.42
2018-07-02T15:59:13.818Z,35.93
2018-07-02T16:01:43.861Z,36.23
2018-07-02T16:04:13.869Z,35.84
2018-07-02T16:06:43.841Z,34.82
2018-07-02T16:09:14.260Z,35.62
2018-07-02T16:11:44.653Z,35.91
2018-07-02T16:14:14.592Z,36.19
2018-07-02T16:16:45.633Z,35.69
2018-07-02T16:19:16.400Z,36.40
2018-07-02T16:21:46.657Z,35.61
2018-07-02T16:24:16.798Z,37.19
2018-07-02T16:26:46.812Z,36.84
2018-07-02T16:29:16.995Z,36.84
2018-07-02T16:31:46.824Z,37.51
2018-07-02T16:34:16.793Z,37.48
2018-07-02T16:36:46.408Z,37.12
2018-07-02T16:39:16.136Z,37.40
2018-07-02T16:41:46.310Z,37.63
2018-07-02T16:44:16.252Z,38.40
2018-07-02T16:46:49.147Z,38.04
2018-07-02T16:49:18.981Z,38.91
2018-07-02T16:51:48.602Z,38.92
2018-07-02T16:54:18.663Z,38.62
2018-07-02T16:56:48.051Z,37.79
2018-07-02T16:59:17.737Z,37.42
2018-07-02T17:01:47.793Z,38.36
2018-07-02T17:04:17.451Z,38.56
2018-07-02T17:06:47.080Z,38.61
2018-07-02T17:09:17.029Z,38.38
2018-07-02T17:11:46.596Z,38.67
2018-07-02T17:14:16.474Z,38.76
2018-07-02T17:16:46.732Z,39.13
2018-07-02T17:19:16.566Z,38.58
2018-07-02T17:21:48.585Z,37.91
2018-07-02T17:24:18.375Z,37.55
2018-07-02T17:26:48.469Z,36.30
2018-07-02T17:29:18.482Z,37.09
2018-07-02T17:31:49.117Z,37.62
2018-07-02T17:34:18.869Z,38.34
2018-07-02T17:36:48.478Z,38.61
2018-07-02T17:39:19.860Z,39.83
2018-07-02T17:41:49.741Z,41.44
2018-07-02T17:44:19.895Z,41.13
2018-07-02T17:46:49.744Z,40.82
2018-07-02T17:49:19.433Z,41.93
2018-07-02T17:51:49.630Z,42.97
2018-07-02T17:54:19.326Z,42.87
2018-07-02T17:56:49.458Z,41.95
2018-07-02T17:59:19.419Z,41.16
2018-07-02T18:01:49.135Z,41.12
2018-07-02T18:04:18.859Z,40.97
2018-07-02T18:06:48.583Z,40.71
2018-07-02T18:09:18.026Z,41.24
2018-07-02T18:11:47.631Z,41.07
2018-07-02T18:14:17.186Z,41.45
2018-07-02T18:16:46.705Z,42.20
2018-07-02T18:19:16.277Z,42.34
2018-07-02T18:21:45.991Z,42.42
2018-07-02T18:24:15.533Z,42.18
2018-07-02T18:26:45.339Z,43.00
2018-07-02T18:29:15.295Z,43.46
2018-07-02T18:31:44.918Z,42.80
2018-07-02T18:34:14.644Z,44.00
2018-07-02T18:36:44.401Z,44.11
2018-07-02T18:39:13.947Z,44.05
2018-07-02T18:41:43.692Z,44.66
2018-07-02T18:44:13.535Z,44.15
2018-07-02T18:46:42.935Z,44.64
2018-07-02T18:49:12.630Z,44.59
2018-07-02T18:51:42.798Z,44.99
2018-07-02T18:54:12.288Z,45.25
2018-07-02T18:56:42.012Z,45.49
2018-07-02T18:59:11.730Z,45.01
2018-07-02T19:01:41.188Z,45.33
2018-07-02T19:04:10.774Z,44.89
2018-07-02T19:06:40.488Z,45.35
2018-07-02T19:09:11.844Z,45.97
2018-07-02T19:11:42.187Z,46.18
2018-07-02T19:14:11.788Z,46.09
2018-07-02T19:16:41.332Z,45.69
2018-07-02T19:19:11.098Z,46.08
2018-07-02T19:21:40.854Z,45.17
2018-07-02T19:24:10.302Z,45.53
2018-07-02T19:26:40.201Z,45.31
2018-07-02T19:29:10.200Z,45.73
2018-07-02T19:31:39.759Z,46.23
2018-07-02T19:34:09.807Z,47.32
2018-07-02T19:36:39.303Z,47.32
2018-07-02T19:39:12.522Z,47.21
2018-07-02T19:41:42.026Z,47.79
2018-07-02T19:44:12.747Z,48.20
2018-07-02T19:46:42.443Z,48.46
2018-07-02T19:49:11.969Z,49.12
2018-07-02T19:51:41.714Z,48.64
2018-07-02T19:54:11.333Z,49.18
2018-07-02T19:56:40.904Z,49.48
2018-07-02T19:59:10.715Z,50.01
2018-07-02T20:01:40.246Z,49.84
2018-07-02T20:04:09.869Z,49.93
2018-07-02T20:06:39.687Z,49.91
2018-07-02T20:09:09.870Z,50.26
2018-07-02T20:11:39.472Z,50.28
2018-07-02T20:14:08.928Z,50.80
2018-07-02T20:16:39.032Z,50.73
2018-07-02T20:19:08.651Z,50.63
2018-07-02T20:21:38.026Z,51.33
2018-07-02T20:24:07.611Z,51.72
2018-07-02T20:26:37.419Z,51.86
2018-07-02T20:29:07.035Z,52.30
2018-07-02T20:31:37.025Z,52.81
2018-07-02T20:34:06.995Z,52.96
2018-07-02T20:36:36.499Z,52.69
2018-07-02T20:39:08.886Z,53.47
2018-07-02T20:41:38.442Z,53.40
2018-07-02T20:44:08.312Z,53.30
2018-07-02T20:46:38.026Z,53.79
2018-07-02T20:49:07.718Z,54.63
2018-07-02T20:51:37.297Z,54.33
2018-07-02T20:54:07.368Z,54.83
2018-07-02T20:56:37.102Z,55.22
2018-07-02T20:59:06.949Z,56.02
2018-07-02T21:01:37.798Z,56.29
2018-07-02T21:04:07.794Z,56.22
2018-07-02T21:06:38.017Z,56.86
2018-07-02T21:09:09.906Z,56.49
2018-07-02T21:11:39.532Z,57.12
2018-07-02T21:14:08.965Z,56.66
2018-07-02T21:16:38.799Z,57.46
2018-07-02T21:19:08.314Z,57.48
2018-07-02T21:21:37.866Z,58.10
2018-07-02T21:24:07.646Z,57.45
2018-07-02T21:26:37.773Z,57.56
2018-07-02T21:29:08.240Z,57.72
2018-07-02T21:31:38.015Z,57.49
2018-07-02T21:34:07.736Z,58.05
2018-07-02T21:36:37.599Z,57.95
2018-07-02T21:39:10.844Z,58.10
2018-07-02T21:41:40.596Z,58.47
2018-07-02T21:44:10.364Z,58.34
2018-07-02T21:46:40.212Z,58.42
2018-07-02T21:49:09.800Z,58.62
2018-07-02T21:51:39.788Z,58.59
2018-07-02T21:54:10.043Z,59.46
2018-07-02T21:56:39.902Z,59.60
2018-07-02T21:59:09.519Z,59.82
2018-07-02T22:01:39.581Z,59.58
2018-07-02T22:04:09.638Z,59.04
2018-07-02T22:06:39.235Z,58.49
2018-07-02T22:09:10.253Z,59.17
2018-07-02T22:11:40.145Z,59.00
2018-07-02T22:14:09.769Z,59.19
2018-07-02T22:16:40.065Z,59.43
2018-07-02T22:19:09.813Z,59.86
2018-07-02T22:21:39.689Z,59.68
2018-07-02T22:24:09.538Z,60.43
2018-07-02T22:26:39.083Z,60.24
2018-07-02T22:29:08.554Z,60.34
2018-07-02T22:31:38.706Z,60.50
2018-07-02T22:34:08.700Z,61.09
2018-07-02T22:36:38.445Z,60.95
2018-07-02T22:39:10.189Z,61.04
2018-07-02T22:41:39.888Z,60.94
2018-07-02T22:44:10.254Z,61.26
2018-07-02T22:46:40.435Z,61.63
2018-07-02T22:49:10.421Z,61.01
2018-07-02T22:51:40.009Z,61.29
2018-07-02T22:54:09.997Z,62.26
2018-07-02T22:56:39.779Z,61.57
2018-07-02T22:59:09.213Z,62.17
2018-07-02T23:01:38.853Z,61.79
2018-07-02T23:04:08.441Z,62.45
2018-07-02T23:06:37.908Z,62.22
2018-07-02T23:09:09.935Z,62.13
2018-07-02T23:11:39.472Z,62.72
2018-07-02T23:14:08.638Z,62.98
2018-07-02T23:16:38.545Z,63.66
2018-07-02T23:19:07.986Z,63.69
2018-07-02T23:21:37.468Z,64.09
2018-07-02T23:24:07.283Z,64.12
2018-07-02T23:26:36.534Z,64.06
2018-07-02T23:29:05.900Z,64.26
2018-07-02T23:31:35.704Z,64.09
2018-07-02T23:34:05.208Z,63.99
2018-07-02T23:36:34.604Z,63.98
2018-07-02T23:39:04.388Z,64.85
2018-07-02T23:41:33.911Z,64.57
2018-07-02T23:44:03.218Z,64.62
2018-07-02T23:46:32.983Z,64.19
2018-07-02T23:49:02.795Z,64.54
2018-07-02T23:51:32.215Z,64.80
2018-07-02T23:54:01.852Z,64.81
2018-07-02T23:56:31.432Z,64.42
2018-07-02T23:59:00.958Z,65.01
